Главная страница
METAR-TAF:

METAR-TAF

Аэропорты :

Нуакшот, Мавритания

широта: 18-18-36N, долгота: 015-58-11W, высота над уровнем моря: 3 м

Текущие метеонаблюдения

Эта сводка был подготовлена 18 минут назад, в 02:00 UTC
Ветер 6 Узел от северо-восточный
Температура 15°C
Влажность 21%
Давление 1014 hPa
Видимость: 4000 м
пыль, взвешенная над обширной территорией

METAR: GQNO 230200Z 05006KT 4000 DU NSC 15/M07 Q1014 NOSIG

Время: 02:18 (02:18 UTC)

Прогноз

Эта сводка был подготовлена 3 часа и 18 минут назад, в 23:00 UTC
Прогноз действительный с 23-го 00 UTC до 24-го 06 UTC
Ветер 8 Узел от северо-восточный
Видимость: 6000 м
изменения
С 23-го 08 UTC до 23-го 10 UTC
Ветер 18 Узел от восточный
Видимость: 3500 м
Низовая пыльная метель
изменения
С 23-го 15 UTC до 23-го 19 UTC
Ветер 8 Узел от восточно-северо-восточный
Видимость: 7000 м

TAF: GQNO 222300Z 2300/2406 05008KT 6000 NSC BECMG 2308/2310 09018KT 3500 BLDU BECMG 2315/2319 06008KT 7000 NSW

Метеонаблюдения и прогнозы для более 4000 аэропортов (сводки METAR и TAF).

Имеющиеся станции представлены на карте желтыми и красными точками.

Чтобы увидеть название станции, наведите на нее мышь.

Затем щелкните, чтобы увидеть метеонаблюдения и метеопрогнозы.

Управление картой: чтобы увеличить масштаб, щелкните зеленые кнопки с черным крестиком; чтобы уменьшить масштаб, щелкните зеленую кнопку с тире; для просмотра соседних карт щелкайте зеленые стрелки.


METAR-TAF: